createdAt,value
2018-08-06T00:00:08.328Z,0
2018-08-06T00:00:48.790Z,0
2018-08-06T00:01:29.181Z,0
2018-08-06T00:03:41.734Z,0
2018-08-06T00:04:22.109Z,0
2018-08-06T00:05:02.512Z,0
2018-08-06T00:05:42.933Z,0
2018-08-06T00:06:23.330Z,0
2018-08-06T00:07:03.737Z,0
2018-08-06T00:07:44.160Z,0
2018-08-06T00:08:24.598Z,0
2018-08-06T00:09:04.956Z,0
2018-08-06T00:09:45.353Z,0
2018-08-06T00:12:18.118Z,0
2018-08-06T00:12:58.509Z,0
2018-08-06T00:13:38.894Z,0
2018-08-06T00:14:19.303Z,0
2018-08-06T00:14:59.730Z,0
2018-08-06T00:15:40.124Z,0
2018-08-06T00:16:20.564Z,0
2018-08-06T00:17:00.949Z,0
2018-08-06T00:17:41.382Z,0
2018-08-06T00:18:21.815Z,0
2018-08-06T00:19:02.238Z,0
2018-08-06T00:19:42.693Z,0
2018-08-06T00:22:20.676Z,0
2018-08-06T00:23:01.082Z,0
2018-08-06T00:23:41.494Z,0
2018-08-06T00:24:21.883Z,0
2018-08-06T00:25:02.306Z,0
2018-08-06T00:25:42.768Z,0
2018-08-06T00:26:23.158Z,0
2018-08-06T00:27:03.558Z,0
2018-08-06T00:27:43.976Z,0
2018-08-06T00:28:24.423Z,0
2018-08-06T00:29:04.827Z,0
2018-08-06T00:29:45.262Z,0
2018-08-06T00:32:18.097Z,0
2018-08-06T00:32:58.449Z,0
2018-08-06T00:33:38.877Z,0
2018-08-06T00:34:19.286Z,0
2018-08-06T00:36:52.056Z,0
2018-08-06T00:37:32.518Z,0
2018-08-06T00:38:13.022Z,0
2018-08-06T00:38:53.418Z,0
2018-08-06T00:39:33.868Z,0
2018-08-06T00:40:14.363Z,0
2018-08-06T00:40:54.665Z,0
2018-08-06T00:41:35.108Z,0
2018-08-06T00:42:15.495Z,0
2018-08-06T00:42:55.912Z,0
2018-08-06T00:43:36.287Z,0
2018-08-06T00:44:16.709Z,0
2018-08-06T00:44:57.117Z,0
2018-08-06T00:45:37.498Z,0
2018-08-06T00:46:17.920Z,0
2018-08-06T00:46:58.298Z,0
2018-08-06T00:47:38.680Z,0
2018-08-06T00:48:19.082Z,0
2018-08-06T00:48:59.488Z,0
2018-08-06T00:51:17.136Z,0
2018-08-06T00:51:57.492Z,0
2018-08-06T00:54:35.467Z,0
2018-08-06T00:55:15.838Z,0
2018-08-06T00:55:56.262Z,0
2018-08-06T00:56:36.656Z,0
2018-08-06T00:57:17.063Z,0
2018-08-06T00:59:54.894Z,0
2018-08-06T01:00:35.292Z,0
2018-08-06T01:01:15.699Z,0
2018-08-06T01:01:56.137Z,0
2018-08-06T01:02:36.571Z,0
2018-08-06T01:03:16.949Z,0
2018-08-06T01:03:57.365Z,0
2018-08-06T01:04:37.725Z,0
2018-08-06T01:05:18.154Z,0
2018-08-06T01:05:58.554Z,0
2018-08-06T01:06:38.979Z,0
2018-08-06T01:07:19.373Z,0
2018-08-06T01:07:59.771Z,0
2018-08-06T01:08:40.184Z,0
2018-08-06T01:09:20.625Z,0
2018-08-06T01:10:00.987Z,0
2018-08-06T01:10:41.390Z,0
2018-08-06T01:11:21.800Z,0
2018-08-06T01:12:02.199Z,0
2018-08-06T01:12:42.581Z,0
2018-08-06T01:13:23.019Z,0
2018-08-06T01:14:03.393Z,0
2018-08-06T01:14:43.813Z,0
2018-08-06T01:15:24.219Z,0
2018-08-06T01:16:04.642Z,0
2018-08-06T01:16:45.040Z,0
2018-08-06T01:19:02.625Z,0
2018-08-06T01:19:43.056Z,0
2018-08-06T01:20:23.425Z,0
2018-08-06T01:22:56.303Z,0
2018-08-06T01:23:36.630Z,0
2018-08-06T01:25:49.136Z,0
2018-08-06T01:26:29.564Z,0
2018-08-06T01:27:09.930Z,0
2018-08-06T01:27:50.378Z,0
2018-08-06T01:28:30.797Z,0
2018-08-06T01:29:11.204Z,0
2018-08-06T01:29:51.596Z,0
2018-08-06T01:30:31.959Z,0
2018-08-06T01:31:12.395Z,0
2018-08-06T01:31:52.791Z,0
2018-08-06T01:32:33.177Z,0
2018-08-06T01:33:13.567Z,0
2018-08-06T01:33:53.994Z,0
2018-08-06T01:34:34.401Z,0
2018-08-06T01:35:14.815Z,0
2018-08-06T01:35:55.203Z,0
2018-08-06T01:36:35.681Z,0
2018-08-06T01:37:16.044Z,0
2018-08-06T01:37:56.437Z,0
2018-08-06T01:38:36.865Z,0
2018-08-06T01:39:17.265Z,0
2018-08-06T01:39:57.693Z,0
2018-08-06T01:40:38.044Z,0
2018-08-06T01:41:18.462Z,0
2018-08-06T01:41:58.941Z,0
2018-08-06T01:42:39.243Z,0
2018-08-06T01:43:19.639Z,0
2018-08-06T01:44:00.053Z,0
2018-08-06T01:44:40.488Z,0
2018-08-06T01:45:20.881Z,0
2018-08-06T01:46:01.286Z,0
2018-08-06T01:46:41.754Z,0
2018-08-06T01:47:22.116Z,0
2018-08-06T01:48:02.520Z,0
2018-08-06T01:48:42.875Z,0
2018-08-06T01:49:23.287Z,0
2018-08-06T01:50:03.714Z,0
2018-08-06T01:50:44.151Z,0
2018-08-06T01:51:24.560Z,0
2018-08-06T01:52:04.967Z,0
2018-08-06T01:54:17.497Z,0
2018-08-06T01:54:57.874Z,0
2018-08-06T01:55:38.273Z,0
2018-08-06T01:56:18.695Z,0
2018-08-06T01:56:59.093Z,0
2018-08-06T01:57:39.552Z,0
2018-08-06T02:00:07.254Z,0
2018-08-06T02:00:48.984Z,0
2018-08-06T02:01:29.388Z,0
2018-08-06T02:02:09.827Z,0
2018-08-06T02:02:50.248Z,0
2018-08-06T02:03:30.668Z,0
2018-08-06T02:04:11.068Z,0
2018-08-06T02:04:51.490Z,0
2018-08-06T02:05:31.840Z,0
2018-08-06T02:06:12.264Z,0
2018-08-06T02:06:52.647Z,0
2018-08-06T02:07:33.015Z,0
2018-08-06T02:08:13.409Z,0
2018-08-06T02:10:46.285Z,0
2018-08-06T02:11:26.688Z,0
2018-08-06T02:12:07.105Z,0
2018-08-06T02:12:47.481Z,0
2018-08-06T02:13:27.866Z,0
2018-08-06T02:14:08.292Z,0
2018-08-06T02:14:48.708Z,0
2018-08-06T02:17:21.484Z,0
2018-08-06T02:18:01.901Z,0
2018-08-06T02:18:42.238Z,0
2018-08-06T02:19:22.698Z,0
2018-08-06T02:20:03.075Z,0
2018-08-06T02:20:43.505Z,0
2018-08-06T02:21:23.925Z,0
2018-08-06T02:22:04.353Z,0
2018-08-06T02:22:44.737Z,0
2018-08-06T02:25:02.343Z,0
2018-08-06T02:25:42.736Z,0
2018-08-06T02:26:23.196Z,0
2018-08-06T02:27:03.529Z,0
2018-08-06T02:27:43.986Z,0
2018-08-06T02:28:24.371Z,0
2018-08-06T02:29:04.793Z,0
2018-08-06T02:29:45.159Z,0
2018-08-06T02:30:25.563Z,0
2018-08-06T02:31:05.973Z,0
2018-08-06T02:31:46.375Z,0
2018-08-06T02:32:26.806Z,0
2018-08-06T02:33:07.157Z,0
2018-08-06T02:33:47.685Z,0
2018-08-06T02:34:27.976Z,0
2018-08-06T02:35:08.411Z,0
2018-08-06T02:35:48.831Z,0
2018-08-06T02:36:29.301Z,0
2018-08-06T02:37:09.682Z,0
2018-08-06T02:37:50.031Z,0
2018-08-06T02:38:30.416Z,0
2018-08-06T02:39:10.872Z,0
2018-08-06T02:39:51.237Z,0
2018-08-06T02:40:31.656Z,0
2018-08-06T02:41:12.039Z,0
2018-08-06T02:41:52.471Z,0
2018-08-06T02:42:32.856Z,0
2018-08-06T02:43:13.282Z,0
2018-08-06T02:43:53.682Z,0
2018-08-06T02:44:34.108Z,0
2018-08-06T02:45:14.489Z,0
2018-08-06T02:45:54.876Z,0
2018-08-06T02:46:35.304Z,0
2018-08-06T02:47:15.749Z,0
2018-08-06T02:47:56.128Z,0
2018-08-06T02:48:36.562Z,0
2018-08-06T02:49:16.973Z,0
2018-08-06T02:51:35.577Z,0
2018-08-06T02:52:15.925Z,0
2018-08-06T02:52:56.323Z,0
2018-08-06T02:53:36.742Z,0
2018-08-06T02:54:17.189Z,0
2018-08-06T02:56:45.028Z,0
2018-08-06T02:57:25.366Z,0
2018-08-06T02:58:05.741Z,0
2018-08-06T03:00:18.420Z,0
2018-08-06T03:00:58.660Z,0
2018-08-06T03:01:39.031Z,0
2018-08-06T03:02:19.406Z,0
2018-08-06T03:02:59.802Z,0
2018-08-06T03:03:40.189Z,0
2018-08-06T03:04:20.586Z,0
2018-08-06T03:06:33.116Z,0
2018-08-06T03:07:13.489Z,0
2018-08-06T03:07:53.894Z,0
2018-08-06T03:08:34.317Z,0
2018-08-06T03:09:14.714Z,0
2018-08-06T03:09:55.135Z,0
2018-08-06T03:10:35.496Z,0
2018-08-06T03:11:15.880Z,0
2018-08-06T03:11:56.304Z,0
2018-08-06T03:12:36.714Z,0
2018-08-06T03:13:17.128Z,0
2018-08-06T03:13:57.535Z,0
2018-08-06T03:14:37.939Z,0
2018-08-06T03:15:18.342Z,0
2018-08-06T03:15:58.794Z,0
2018-08-06T03:16:39.226Z,0
2018-08-06T03:17:19.636Z,0
2018-08-06T03:18:00.035Z,0
2018-08-06T03:18:40.434Z,0
2018-08-06T03:20:58.079Z,0
2018-08-06T03:21:38.543Z,0
2018-08-06T03:22:18.913Z,0
2018-08-06T03:22:59.399Z,0
2018-08-06T03:23:39.731Z,0
2018-08-06T03:24:20.188Z,0
2018-08-06T03:25:00.590Z,0
2018-08-06T03:25:41.079Z,0
2018-08-06T03:26:21.481Z,0
2018-08-06T03:27:01.837Z,0
2018-08-06T03:27:42.282Z,0
2018-08-06T03:28:22.625Z,0
2018-08-06T03:29:03.069Z,0
2018-08-06T03:29:43.498Z,0
2018-08-06T03:30:23.901Z,0
2018-08-06T03:31:04.428Z,0
2018-08-06T03:31:44.700Z,0
2018-08-06T03:32:25.060Z,0
2018-08-06T03:33:05.512Z,0
2018-08-06T03:33:45.889Z,0
2018-08-06T03:34:26.454Z,0
2018-08-06T03:35:06.823Z,0
2018-08-06T03:35:47.199Z,0
2018-08-06T03:36:27.603Z,0
2018-08-06T03:37:07.991Z,0
2018-08-06T03:37:48.491Z,0
2018-08-06T03:38:28.869Z,0
2018-08-06T03:39:09.255Z,0
2018-08-06T03:39:49.688Z,0
2018-08-06T03:40:30.093Z,0
2018-08-06T03:41:10.493Z,0
2018-08-06T03:41:50.868Z,0
2018-08-06T03:42:31.359Z,0
2018-08-06T03:43:11.747Z,0
2018-08-06T03:45:39.893Z,0
2018-08-06T03:46:20.283Z,0
2018-08-06T03:47:00.726Z,0
2018-08-06T03:47:41.127Z,0
2018-08-06T03:48:21.511Z,0
2018-08-06T03:49:02.054Z,0
2018-08-06T03:49:42.446Z,0
2018-08-06T03:50:22.788Z,0
2018-08-06T03:51:03.128Z,0
2018-08-06T03:53:21.910Z,0
2018-08-06T03:54:02.280Z,0
2018-08-06T03:54:42.751Z,0
2018-08-06T03:55:23.166Z,0
2018-08-06T03:56:03.596Z,0
2018-08-06T03:56:44.013Z,0
2018-08-06T03:57:24.389Z,0
2018-08-06T04:00:02.268Z,0
2018-08-06T04:00:42.706Z,0
2018-08-06T04:01:23.121Z,0
2018-08-06T04:02:03.521Z,0
2018-08-06T04:02:43.919Z,0
2018-08-06T04:04:56.410Z,0
2018-08-06T04:05:36.804Z,0
2018-08-06T04:06:17.276Z,0
2018-08-06T04:06:57.705Z,0
2018-08-06T04:09:26.529Z,0
2018-08-06T04:10:06.956Z,0
2018-08-06T04:10:47.384Z,0
2018-08-06T04:11:27.831Z,0
2018-08-06T04:12:08.248Z,0
2018-08-06T04:12:48.637Z,5
2018-08-06T04:15:21.443Z,5
2018-08-06T04:16:01.835Z,5
2018-08-06T04:16:42.225Z,5
2018-08-06T04:17:22.621Z,5
2018-08-06T04:19:40.281Z,5
2018-08-06T04:20:20.581Z,5
2018-08-06T04:21:01.004Z,5
2018-08-06T04:21:41.424Z,10
2018-08-06T04:22:21.850Z,10
2018-08-06T04:23:02.865Z,10
2018-08-06T04:23:42.710Z,10
2018-08-06T04:24:23.135Z,10
2018-08-06T04:25:03.543Z,10
2018-08-06T04:25:44.035Z,10
2018-08-06T04:26:24.455Z,10
2018-08-06T04:27:04.917Z,10
2018-08-06T05:08:15.805Z,130
2018-08-06T05:08:56.219Z,135
2018-08-06T05:09:36.589Z,135
2018-08-06T05:10:17.960Z,140
2018-08-06T05:10:58.296Z,140
2018-08-06T05:11:38.639Z,110
2018-08-06T05:12:19.092Z,60
2018-08-06T05:12:59.482Z,80
2018-08-06T05:13:39.891Z,135
2018-08-06T05:14:20.225Z,155
2018-08-06T05:15:00.711Z,160
2018-08-06T05:15:41.088Z,160
2018-08-06T05:16:21.467Z,150
2018-08-06T05:17:01.858Z,150
2018-08-06T05:17:42.300Z,165
2018-08-06T05:20:01.035Z,45
2018-08-06T05:20:41.455Z,55
2018-08-06T05:21:21.814Z,75
2018-08-06T05:22:02.221Z,80
2018-08-06T05:22:42.659Z,70
2018-08-06T05:23:23.077Z,40
2018-08-06T05:24:03.679Z,40
2018-08-06T05:24:44.137Z,35
2018-08-06T05:25:24.429Z,35
2018-08-06T05:26:05.847Z,50
2018-08-06T05:26:46.258Z,40
2018-08-06T05:27:26.825Z,40
2018-08-06T05:28:07.447Z,40
2018-08-06T05:28:47.813Z,65
2018-08-06T05:29:28.221Z,50
2018-08-06T05:30:08.648Z,50
2018-08-06T05:30:49.082Z,120
2018-08-06T05:31:30.557Z,80
2018-08-06T05:32:10.254Z,65
2018-08-06T05:32:50.687Z,50
2018-08-06T05:33:31.128Z,50
2018-08-06T05:34:11.804Z,105
2018-08-06T05:34:53.094Z,185
2018-08-06T05:35:33.419Z,130
2018-08-06T05:36:13.836Z,50
2018-08-06T05:36:54.281Z,55
2018-08-06T05:37:34.809Z,50
2018-08-06T05:38:15.237Z,50
2018-08-06T05:41:56.906Z,200
2018-08-06T05:42:37.308Z,280
2018-08-06T05:43:17.698Z,295
2018-08-06T05:43:58.228Z,300
2018-08-06T05:46:15.797Z,350
2018-08-06T05:46:56.180Z,365
2018-08-06T05:47:36.571Z,370
2018-08-06T05:48:17.051Z,380
2018-08-06T05:48:57.415Z,390
2018-08-06T05:49:37.854Z,410
2018-08-06T05:50:18.369Z,425
2018-08-06T05:50:58.769Z,435
2018-08-06T05:51:39.145Z,460
2018-08-06T05:52:20.484Z,485
2018-08-06T05:53:00.890Z,515
2018-08-06T05:53:41.306Z,555
2018-08-06T05:54:21.660Z,650
2018-08-06T05:55:02.089Z,915
2018-08-06T05:55:42.594Z,1275
2018-08-06T05:56:23.012Z,1450
2018-08-06T05:57:03.459Z,1395
2018-08-06T05:57:44.173Z,1155
2018-08-06T05:58:24.693Z,1005
2018-08-06T05:59:06.262Z,965
2018-08-06T05:59:46.022Z,925
2018-08-06T06:00:27.383Z,905
2018-08-06T06:01:07.856Z,915
2018-08-06T06:01:48.372Z,930
2018-08-06T06:02:29.616Z,915
2018-08-06T06:03:09.878Z,905
2018-08-06T06:03:51.780Z,910
2018-08-06T06:04:32.468Z,925
2018-08-06T06:05:14.104Z,935
2018-08-06T06:05:54.694Z,930
2018-08-06T06:06:36.382Z,930
2018-08-06T06:07:17.266Z,940
2018-08-06T06:07:58.214Z,930
2018-08-06T06:08:39.239Z,910
2018-08-06T06:09:21.137Z,925
2018-08-06T06:10:01.984Z,975
2018-08-06T06:10:43.405Z,1010
2018-08-06T06:11:23.579Z,1010
2018-08-06T06:12:04.680Z,1020
2018-08-06T06:12:45.437Z,1040
2018-08-06T06:13:26.384Z,1025
2018-08-06T06:14:07.036Z,1020
2018-08-06T06:14:48.337Z,1020
2018-08-06T06:15:29.223Z,1030
2018-08-06T06:16:09.698Z,1020
2018-08-06T06:16:50.983Z,1015
2018-08-06T06:17:31.557Z,1015
2018-08-06T06:18:12.511Z,1005
2018-08-06T06:18:53.044Z,1000
2018-08-06T06:19:34.785Z,990
2018-08-06T06:20:14.900Z,985
2018-08-06T06:20:56.337Z,980
2018-08-06T06:21:36.329Z,985
2018-08-06T06:22:18.303Z,990
2018-08-06T06:22:59.595Z,1015
2018-08-06T06:23:40.042Z,1045
2018-08-06T06:24:20.597Z,1060
2018-08-06T06:25:01.009Z,1080
2018-08-06T06:25:42.449Z,1090
2018-08-06T06:26:22.186Z,1095
2018-08-06T06:27:09.709Z,1130
2018-08-06T06:27:51.149Z,1140
2018-08-06T06:28:32.966Z,1160
2018-08-06T06:29:13.795Z,1170
2018-08-06T06:29:54.856Z,1155
2018-08-06T06:30:35.858Z,1165
2018-08-06T06:31:17.444Z,1185
2018-08-06T06:31:57.796Z,1170
2018-08-06T06:32:42.683Z,1185
2018-08-06T06:33:22.241Z,1170
2018-08-06T06:34:03.288Z,1180
2018-08-06T06:34:43.861Z,1200
2018-08-06T06:35:24.909Z,1215
2018-08-06T06:36:06.344Z,1215
2018-08-06T06:36:46.666Z,1225
2018-08-06T06:37:27.351Z,1230
2018-08-06T06:38:09.300Z,1250
2018-08-06T06:38:49.558Z,1285
2018-08-06T06:39:29.980Z,1285
2018-08-06T06:40:10.357Z,1255
2018-08-06T06:40:50.862Z,1270
2018-08-06T06:41:33.024Z,1290
2018-08-06T06:42:13.480Z,1300
2018-08-06T06:42:54.380Z,1295
2018-08-06T06:43:34.992Z,1275
2018-08-06T06:44:15.530Z,1265
2018-08-06T06:44:57.292Z,1250
2018-08-06T06:45:36.967Z,1260
2018-08-06T06:46:17.396Z,1255
2018-08-06T06:46:57.966Z,1275
2018-08-06T06:47:38.985Z,1295
2018-08-06T06:48:20.399Z,1300
2018-08-06T06:49:01.010Z,1315
2018-08-06T06:49:41.689Z,1340
2018-08-06T06:50:22.686Z,1375
2018-08-06T06:51:03.715Z,1370
2018-08-06T06:51:45.314Z,1380
2018-08-06T06:52:26.252Z,1205
2018-08-06T06:53:07.487Z,775
2018-08-06T06:58:12.628Z,535
2018-08-06T06:59:08.420Z,550
2018-08-06T07:00:12.170Z,550
2018-08-06T07:01:07.947Z,525
2018-08-06T07:02:03.548Z,540
2018-08-06T07:03:03.949Z,575
2018-08-06T07:04:00.254Z,600
2018-08-06T07:04:53.288Z,600
2018-08-06T07:05:56.861Z,570
2018-08-06T07:06:51.863Z,565
2018-08-06T07:07:47.220Z,570
2018-08-06T07:08:49.201Z,595
2018-08-06T07:09:56.877Z,595
2018-08-06T07:17:58.495Z,640
2018-08-06T07:18:52.282Z,635
2018-08-06T07:19:45.611Z,625
2018-08-06T07:20:41.834Z,595
2018-08-06T07:21:36.659Z,585
2018-08-06T07:22:28.758Z,570
2018-08-06T07:23:21.716Z,550
2018-08-06T07:24:17.046Z,545
2018-08-06T07:25:12.394Z,545
2018-08-06T07:26:09.690Z,555
2018-08-06T07:27:04.641Z,540
2018-08-06T07:28:04.270Z,525
2018-08-06T07:28:57.667Z,510
2018-08-06T07:29:50.079Z,495
2018-08-06T07:30:42.977Z,485
2018-08-06T07:31:35.870Z,450
2018-08-06T07:32:30.715Z,380
2018-08-06T07:33:25.544Z,320
2018-08-06T07:34:19.394Z,295
2018-08-06T07:35:09.637Z,270
2018-08-06T07:35:50.561Z,260
2018-08-06T07:36:34.995Z,255
2018-08-06T07:50:03.406Z,140
2018-08-06T07:50:44.242Z,135
2018-08-06T07:51:25.052Z,135
2018-08-06T07:52:06.721Z,130
2018-08-06T07:52:48.934Z,130
2018-08-06T07:53:30.067Z,130
2018-08-06T07:54:10.750Z,130
2018-08-06T07:54:51.246Z,125
2018-08-06T07:55:32.101Z,125
2018-08-06T07:56:13.182Z,120
2018-08-06T07:56:53.761Z,120
2018-08-06T07:57:34.128Z,120
2018-08-06T07:58:15.628Z,115
2018-08-06T07:58:56.628Z,115
2018-08-06T07:59:37.420Z,115
2018-08-06T08:00:18.269Z,115
2018-08-06T08:00:59.944Z,110
2018-08-06T08:01:40.512Z,110
2018-08-06T08:02:21.467Z,110
2018-08-06T08:03:02.949Z,105
2018-08-06T08:03:43.061Z,105
2018-08-06T08:04:23.819Z,105
2018-08-06T08:05:04.429Z,105
2018-08-06T08:05:44.978Z,105
2018-08-06T08:06:25.470Z,100
2018-08-06T08:07:06.506Z,100
2018-08-06T08:07:47.696Z,100
2018-08-06T08:08:30.968Z,100
2018-08-06T08:09:10.969Z,100
2018-08-06T08:09:51.468Z,100
2018-08-06T08:10:33.189Z,95
2018-08-06T08:11:12.689Z,95
2018-08-06T08:11:54.177Z,95
2018-08-06T08:12:34.130Z,95
2018-08-06T08:13:17.613Z,95
2018-08-06T08:13:58.463Z,95
2018-08-06T08:14:39.703Z,95
2018-08-06T08:15:20.811Z,90
2018-08-06T08:16:01.615Z,90
2018-08-06T08:16:42.055Z,90
2018-08-06T08:17:22.527Z,90
2018-08-06T08:18:03.467Z,90
2018-08-06T08:18:45.953Z,90
2018-08-06T08:19:26.253Z,90
2018-08-06T08:20:07.744Z,90
2018-08-06T08:20:48.616Z,90
2018-08-06T08:21:29.197Z,90
2018-08-06T08:22:10.134Z,90
2018-08-06T08:22:50.809Z,90
2018-08-06T08:23:31.955Z,85
2018-08-06T08:24:12.476Z,85
2018-08-06T08:24:53.076Z,85
2018-08-06T08:25:34.457Z,85
2018-08-06T08:26:14.455Z,85
2018-08-06T08:26:55.136Z,85
2018-08-06T08:27:36.734Z,80
2018-08-06T08:28:19.479Z,85
2018-08-06T08:28:59.063Z,85
2018-08-06T08:29:39.658Z,80
2018-08-06T08:30:20.132Z,80
2018-08-06T08:31:02.478Z,80
2018-08-06T08:31:42.305Z,80
2018-08-06T08:32:23.233Z,85
2018-08-06T08:33:04.145Z,75
2018-08-06T08:33:44.646Z,80
2018-08-06T08:34:25.479Z,85
2018-08-06T08:35:06.048Z,85
2018-08-06T08:35:47.523Z,90
2018-08-06T08:36:29.442Z,90
2018-08-06T08:37:10.807Z,90
2018-08-06T08:37:51.500Z,90
2018-08-06T08:38:37.369Z,90
2018-08-06T08:39:19.477Z,90
2018-08-06T08:40:01.767Z,80
2018-08-06T08:40:43.507Z,90
2018-08-06T08:41:26.058Z,80
2018-08-06T08:42:08.002Z,70
2018-08-06T08:42:47.895Z,65
2018-08-06T08:43:31.669Z,60
2018-08-06T08:44:14.648Z,70
2018-08-06T08:44:59.058Z,70
2018-08-06T08:45:38.393Z,85
2018-08-06T08:46:19.500Z,90
2018-08-06T08:47:01.400Z,90
2018-08-06T08:47:42.188Z,90
2018-08-06T08:48:23.978Z,90
2018-08-06T08:49:05.088Z,85
2018-08-06T08:49:45.830Z,85
2018-08-06T08:50:28.495Z,85
2018-08-06T08:51:08.910Z,70
2018-08-06T08:51:49.635Z,65
2018-08-06T08:52:30.566Z,65
2018-08-06T08:53:12.223Z,70
2018-08-06T08:53:53.124Z,70
2018-08-06T08:54:37.108Z,85
2018-08-06T08:55:19.494Z,85
2018-08-06T08:56:00.354Z,85
2018-08-06T08:56:41.206Z,85
2018-08-06T08:57:21.520Z,85
2018-08-06T08:58:02.474Z,85
2018-08-06T08:58:44.348Z,80
2018-08-06T08:59:24.800Z,70
2018-08-06T09:00:05.509Z,70
2018-08-06T09:00:46.267Z,65
2018-08-06T09:01:27.085Z,70
2018-08-06T09:02:08.482Z,65
2018-08-06T09:02:49.877Z,65
2018-08-06T09:03:30.636Z,60
2018-08-06T09:04:11.873Z,65
2018-08-06T09:04:52.462Z,65
2018-08-06T09:05:33.689Z,65
2018-08-06T09:06:14.984Z,65
2018-08-06T09:06:55.530Z,65
2018-08-06T09:07:37.256Z,65
2018-08-06T09:08:17.928Z,65
2018-08-06T09:08:58.719Z,70
2018-08-06T09:09:42.118Z,70
2018-08-06T09:10:22.214Z,75
2018-08-06T09:11:04.328Z,75
2018-08-06T09:11:46.215Z,85
2018-08-06T09:12:30.496Z,85
2018-08-06T09:15:20.363Z,70
2018-08-06T09:16:13.902Z,65
2018-08-06T09:17:14.373Z,75
2018-08-06T09:18:08.528Z,80
2018-08-06T09:19:05.561Z,75
2018-08-06T09:20:01.167Z,85
2018-08-06T09:20:57.428Z,70
2018-08-06T09:23:32.109Z,80
2018-08-06T09:24:35.284Z,90
2018-08-06T09:25:27.680Z,95
2018-08-06T09:26:23.325Z,95
2018-08-06T09:27:21.201Z,100
2018-08-06T09:28:20.254Z,100
2018-08-06T09:35:07.077Z,95
2018-08-06T09:37:27.641Z,95
2018-08-06T09:38:28.043Z,95
2018-08-06T09:39:29.022Z,95
2018-08-06T09:43:49.274Z,80
2018-08-06T09:48:05.575Z,85
2018-08-06T09:48:46.085Z,85
2018-08-06T09:49:26.507Z,80
2018-08-06T09:50:10.126Z,80
2018-08-06T09:50:50.429Z,80
2018-08-06T09:51:31.073Z,80
2018-08-06T09:52:12.324Z,80
2018-08-06T09:52:52.840Z,85
2018-08-06T09:53:33.973Z,85
2018-08-06T09:54:14.913Z,85
2018-08-06T09:54:56.095Z,85
2018-08-06T09:55:40.840Z,85
2018-08-06T09:56:20.673Z,85
2018-08-06T09:57:01.526Z,80
2018-08-06T09:57:42.225Z,85
2018-08-06T09:58:22.800Z,80
2018-08-06T09:59:06.276Z,80
2018-08-06T09:59:47.306Z,80
2018-08-06T10:00:35.139Z,80
2018-08-06T10:01:16.126Z,80
2018-08-06T10:01:56.862Z,80
2018-08-06T10:02:37.677Z,80
2018-08-06T10:03:18.683Z,80
2018-08-06T10:04:01.459Z,80
2018-08-06T10:04:43.086Z,80
2018-08-06T10:05:23.288Z,80
2018-08-06T10:06:04.754Z,75
2018-08-06T10:06:46.237Z,75
2018-08-06T10:07:26.580Z,75
2018-08-06T10:08:07.971Z,75
2018-08-06T10:08:48.605Z,75
2018-08-06T10:09:30.083Z,75
2018-08-06T10:10:10.769Z,75
2018-08-06T10:10:54.602Z,75
2018-08-06T10:11:35.092Z,75
2018-08-06T10:12:19.143Z,75
2018-08-06T10:13:02.671Z,75
2018-08-06T10:13:44.064Z,75
2018-08-06T10:14:26.771Z,75
2018-08-06T10:15:10.847Z,75
2018-08-06T10:15:51.958Z,75
2018-08-06T10:16:40.960Z,75
2018-08-06T10:21:26.460Z,70
2018-08-06T10:27:34.655Z,70
2018-08-06T10:28:31.687Z,70
2018-08-06T11:13:41.489Z,60
2018-08-06T11:14:46.753Z,60
2018-08-06T11:15:26.870Z,60
2018-08-06T11:16:08.643Z,60
2018-08-06T11:16:49.141Z,60
2018-08-06T11:17:30.193Z,60
2018-08-06T11:18:28.023Z,60
2018-08-06T11:19:27.667Z,60
2018-08-06T11:20:08.295Z,60
2018-08-06T11:20:48.787Z,60
2018-08-06T11:21:29.290Z,60
2018-08-06T11:22:10.277Z,60
2018-08-06T11:22:50.561Z,60
2018-08-06T11:23:31.482Z,60
2018-08-06T11:24:18.673Z,60
2018-08-06T11:25:21.576Z,60
2018-08-06T11:26:01.309Z,60
2018-08-06T11:32:43.572Z,60
2018-08-06T11:50:39.244Z,60
2018-08-06T11:51:38.878Z,60
2018-08-06T11:52:48.301Z,60
2018-08-06T12:03:34.149Z,55
2018-08-06T12:04:40.965Z,55
2018-08-06T12:09:00.926Z,55
2018-08-06T12:09:42.292Z,55
2018-08-06T12:10:23.134Z,55
2018-08-06T12:11:06.246Z,55
2018-08-06T12:11:46.693Z,55
2018-08-06T12:12:31.947Z,55
2018-08-06T12:13:12.485Z,55
2018-08-06T12:15:35.946Z,55
2018-08-06T12:16:16.425Z,55
2018-08-06T12:16:57.618Z,55
2018-08-06T12:17:40.479Z,55
2018-08-06T12:18:25.830Z,55
2018-08-06T12:19:06.271Z,55
2018-08-06T12:19:47.266Z,55
2018-08-06T12:20:29.015Z,55
2018-08-06T12:21:10.460Z,55
2018-08-06T12:21:50.510Z,55
2018-08-06T12:24:51.856Z,55
2018-08-06T12:27:22.898Z,55
2018-08-06T12:28:19.851Z,55
2018-08-06T12:31:13.605Z,55
2018-08-06T12:31:55.056Z,55
2018-08-06T12:32:37.750Z,55
2018-08-06T12:33:18.031Z,55
2018-08-06T12:34:01.268Z,55
2018-08-06T12:34:42.248Z,55
2018-08-06T12:35:22.411Z,55
2018-08-06T12:36:02.915Z,55
2018-08-06T12:36:43.367Z,55
2018-08-06T12:37:24.029Z,55
2018-08-06T12:38:04.592Z,55
2018-08-06T12:38:46.023Z,55
2018-08-06T12:39:26.256Z,55
2018-08-06T12:40:06.597Z,55
2018-08-06T12:40:47.346Z,55
2018-08-06T12:41:28.179Z,55
2018-08-06T12:42:08.515Z,55
2018-08-06T12:42:49.262Z,55
2018-08-06T12:43:30.007Z,55
2018-08-06T12:44:10.577Z,55
2018-08-06T12:44:51.033Z,55
2018-08-06T12:45:31.535Z,55
2018-08-06T12:46:12.761Z,55
2018-08-06T12:46:53.821Z,55
2018-08-06T12:47:34.411Z,55
2018-08-06T12:48:15.209Z,55
2018-08-06T12:48:56.323Z,55
2018-08-06T12:49:39.450Z,55
2018-08-06T12:50:21.352Z,55
2018-08-06T12:51:02.418Z,55
2018-08-06T12:51:43.402Z,55
2018-08-06T12:52:27.283Z,55
2018-08-06T12:53:08.957Z,55
2018-08-06T12:53:48.512Z,55
2018-08-06T12:54:31.785Z,55
2018-08-06T12:55:10.853Z,55
2018-08-06T12:55:55.902Z,55
2018-08-06T12:56:38.637Z,55
2018-08-06T12:57:30.852Z,55
2018-08-06T12:58:11.417Z,55
2018-08-06T12:58:53.809Z,55
2018-08-06T12:59:33.315Z,55
2018-08-06T13:00:15.301Z,55
2018-08-06T13:00:57.818Z,55
2018-08-06T13:01:37.997Z,55
2018-08-06T13:02:18.507Z,55
2018-08-06T13:02:59.846Z,55
2018-08-06T13:03:40.613Z,55
2018-08-06T13:04:24.003Z,55
2018-08-06T13:05:04.474Z,55
2018-08-06T13:05:47.021Z,55
2018-08-06T13:06:27.609Z,55
2018-08-06T13:07:08.409Z,55
2018-08-06T13:07:50.873Z,55
2018-08-06T13:08:34.772Z,55
2018-08-06T13:09:15.808Z,55
2018-08-06T13:09:55.437Z,55
2018-08-06T13:10:36.748Z,55
2018-08-06T13:11:17.908Z,55
2018-08-06T13:11:57.673Z,55
2018-08-06T13:12:38.305Z,55
2018-08-06T13:13:18.773Z,55
2018-08-06T13:13:59.471Z,55
2018-08-06T13:14:39.912Z,55
2018-08-06T13:15:20.538Z,55
2018-08-06T13:16:01.197Z,55
2018-08-06T13:16:42.186Z,55
2018-08-06T13:17:22.786Z,55
2018-08-06T13:18:04.422Z,55
2018-08-06T13:18:45.266Z,55
2018-08-06T13:19:25.865Z,55
2018-08-06T13:20:06.162Z,55
2018-08-06T13:20:47.647Z,55
2018-08-06T13:21:29.279Z,55
2018-08-06T13:22:12.286Z,55
2018-08-06T13:22:52.372Z,55
2018-08-06T13:23:33.628Z,55
2018-08-06T13:24:14.262Z,55
2018-08-06T13:24:55.677Z,55
2018-08-06T13:25:36.581Z,55
2018-08-06T13:26:17.330Z,55
2018-08-06T13:26:57.806Z,55
2018-08-06T13:27:38.345Z,55
2018-08-06T13:28:18.901Z,55
2018-08-06T13:28:59.483Z,55
2018-08-06T13:29:40.857Z,55
2018-08-06T13:30:21.494Z,55
2018-08-06T13:31:02.274Z,55
2018-08-06T13:31:43.099Z,55
2018-08-06T13:32:23.940Z,55
2018-08-06T13:33:04.450Z,55
2018-08-06T13:33:44.844Z,55
2018-08-06T13:34:26.289Z,50
2018-08-06T13:35:06.900Z,50
2018-08-06T13:35:47.319Z,50
2018-08-06T13:36:27.871Z,50
2018-08-06T13:37:08.801Z,50
2018-08-06T13:37:49.867Z,50
2018-08-06T13:38:30.346Z,50
2018-08-06T13:39:10.769Z,50
2018-08-06T13:39:51.268Z,50
2018-08-06T13:40:33.039Z,50
2018-08-06T13:41:14.127Z,50
2018-08-06T13:41:54.812Z,50
2018-08-06T13:42:35.270Z,50
2018-08-06T13:43:15.718Z,50
2018-08-06T13:43:56.794Z,50
2018-08-06T13:44:40.966Z,50
2018-08-06T13:45:22.414Z,50
2018-08-06T13:46:03.164Z,50
2018-08-06T13:46:44.335Z,50
2018-08-06T13:47:24.948Z,50
2018-08-06T13:48:06.839Z,50
2018-08-06T13:48:46.546Z,50
2018-08-06T13:49:27.084Z,50
2018-08-06T13:50:07.487Z,50
2018-08-06T13:50:48.729Z,50
2018-08-06T13:51:29.103Z,50
2018-08-06T13:52:12.494Z,50
2018-08-06T13:52:51.379Z,50
2018-08-06T13:53:31.895Z,50
2018-08-06T13:54:15.289Z,50
2018-08-06T13:54:55.809Z,50
2018-08-06T13:55:35.792Z,50
2018-08-06T13:56:16.866Z,50